TAF KGMU
KGMU 280523Z 2806/2906 23008KT P6SM BKN250 FM280900 23004KT P6SM BKN250 FM281600 25007KT P6SM SCT250 FM282200 33006KT P6SM FEW250=
METAR KGMU
WC KGMU
WS KGMU
WV KGMU